createdAt,value
2022-08-20T00:00:00.002Z,88.75
2022-08-20T00:01:03.327Z,88.53
2022-08-20T00:02:05.794Z,88.58
2022-08-20T00:03:11.054Z,88.33
2022-08-20T00:04:13.496Z,88.37
2022-08-20T00:05:18.116Z,88.40
2022-08-20T00:06:23.990Z,88.44
2022-08-20T00:07:27.190Z,88.20
2022-08-20T00:08:31.165Z,88.21
2022-08-20T00:09:36.871Z,88.00
2022-08-20T00:10:42.685Z,87.92
2022-08-20T00:11:48.422Z,87.97
2022-08-20T00:12:50.920Z,87.87
2022-08-20T00:13:56.322Z,87.74
2022-08-20T00:14:58.720Z,87.64
2022-08-20T00:16:02.616Z,87.62
2022-08-20T00:17:05.780Z,87.68
2022-08-20T00:18:10.081Z,87.55
2022-08-20T00:19:15.550Z,87.45
2022-08-20T00:20:20.445Z,87.68
2022-08-20T00:21:25.531Z,87.64
2022-08-20T00:22:28.174Z,87.63
2022-08-20T00:23:33.074Z,87.55
2022-08-20T00:24:35.458Z,87.32
2022-08-20T00:25:38.705Z,87.44
2022-08-20T00:26:52.240Z,87.05
2022-08-20T00:27:56.822Z,87.05
2022-08-20T00:28:59.062Z,87.29
2022-08-20T00:30:02.363Z,87.10
2022-08-20T00:31:07.332Z,86.96
2022-08-20T00:32:10.503Z,86.91
2022-08-20T00:33:15.888Z,86.46
2022-08-20T00:34:19.832Z,86.83
2022-08-20T00:35:26.036Z,86.68
2022-08-20T00:36:32.499Z,86.60
2022-08-20T00:37:35.244Z,86.70
2022-08-20T00:38:41.239Z,86.46
2022-08-20T00:39:43.653Z,86.39
2022-08-20T00:40:51.212Z,86.54
2022-08-20T00:41:53.325Z,86.24
2022-08-20T00:43:00.422Z,86.30
2022-08-20T00:44:10.211Z,85.97
2022-08-20T00:45:14.003Z,86.29
2022-08-20T00:46:20.182Z,86.27
2022-08-20T00:47:23.620Z,86.40
2022-08-20T00:48:29.106Z,86.26
2022-08-20T00:49:34.155Z,86.49
2022-08-20T00:50:38.228Z,86.21
2022-08-20T00:51:44.999Z,86.32
2022-08-20T00:52:51.509Z,86.23
2022-08-20T00:54:03.410Z,86.15
2022-08-20T00:55:08.422Z,86.10
2022-08-20T00:56:12.715Z,86.29
2022-08-20T00:57:26.305Z,86.09
2022-08-20T00:58:29.109Z,86.13
2022-08-20T00:59:34.811Z,86.24
2022-08-20T01:00:43.117Z,86.00
2022-08-20T01:01:55.255Z,86.17
2022-08-20T01:03:00.699Z,86.05
2022-08-20T01:04:05.749Z,86.17
2022-08-20T01:05:10.681Z,86.26
2022-08-20T01:06:13.859Z,86.29
2022-08-20T01:07:16.034Z,86.38
2022-08-20T01:08:23.349Z,86.36
2022-08-20T01:09:50.596Z,86.21
2022-08-20T01:11:07.116Z,86.29
2022-08-20T01:12:10.048Z,86.47
2022-08-20T01:13:19.045Z,86.28
2022-08-20T01:14:27.045Z,86.06
2022-08-20T01:15:32.802Z,86.51
2022-08-20T01:16:36.658Z,86.53
2022-08-20T01:17:46.320Z,86.47
2022-08-20T01:18:52.625Z,86.53
2022-08-20T01:19:58.453Z,86.72
2022-08-20T01:21:05.940Z,86.57
2022-08-20T01:22:24.626Z,86.57
2022-08-20T01:23:37.622Z,86.72
2022-08-20T01:24:45.964Z,86.68
2022-08-20T01:25:53.677Z,86.53
2022-08-20T01:26:57.797Z,86.61
2022-08-20T01:28:00.534Z,86.85
2022-08-20T01:29:08.704Z,86.65
2022-08-20T01:30:12.123Z,86.58
2022-08-20T01:31:18.516Z,86.35
2022-08-20T01:32:22.721Z,86.49
2022-08-20T01:33:26.534Z,86.26
2022-08-20T01:34:29.846Z,86.62
2022-08-20T01:35:38.193Z,86.41
2022-08-20T01:36:46.315Z,85.93
2022-08-20T01:37:48.999Z,86.27
2022-08-20T01:38:54.818Z,86.16
2022-08-20T01:39:57.230Z,85.86
2022-08-20T01:41:18.342Z,85.77
2022-08-20T01:42:35.919Z,85.89
2022-08-20T01:43:41.948Z,85.79
2022-08-20T01:44:47.208Z,85.60
2022-08-20T01:45:50.398Z,85.48
2022-08-20T01:46:57.799Z,85.46
2022-08-20T01:48:01.180Z,85.17
2022-08-20T01:49:13.613Z,85.03
2022-08-20T01:50:26.177Z,84.91
2022-08-20T01:51:31.365Z,84.68
2022-08-20T01:52:41.325Z,84.53
2022-08-20T01:53:46.687Z,84.18
2022-08-20T01:54:48.963Z,84.23
2022-08-20T01:55:52.164Z,84.00
2022-08-20T01:57:01.653Z,83.98
2022-08-20T01:58:04.481Z,83.80
2022-08-20T01:59:08.102Z,83.44
2022-08-20T02:00:19.097Z,83.44
2022-08-20T02:01:29.931Z,82.89
2022-08-20T02:02:32.436Z,83.05
2022-08-20T02:03:39.722Z,82.84
2022-08-20T02:04:45.293Z,82.88
2022-08-20T02:05:48.429Z,82.50
2022-08-20T02:06:56.567Z,82.20
2022-08-20T02:08:02.344Z,82.28
2022-08-20T02:09:07.209Z,82.05
2022-08-20T02:10:12.492Z,81.99
2022-08-20T02:11:15.640Z,81.84
2022-08-20T02:12:19.491Z,81.84
2022-08-20T02:13:24.808Z,81.85
2022-08-20T02:14:27.958Z,81.68
2022-08-20T02:15:34.993Z,81.62
2022-08-20T02:16:44.432Z,81.57
2022-08-20T02:17:58.885Z,81.50
2022-08-20T02:19:09.459Z,81.45
2022-08-20T02:20:17.122Z,81.41
2022-08-20T02:21:19.271Z,81.40
2022-08-20T02:22:28.442Z,81.51
2022-08-20T02:23:32.002Z,81.63
2022-08-20T02:24:35.543Z,81.70
2022-08-20T02:25:40.310Z,81.75
2022-08-20T02:26:44.417Z,81.82
2022-08-20T02:27:49.301Z,81.69
2022-08-20T02:28:54.986Z,82.03
2022-08-20T02:29:57.124Z,82.12
2022-08-20T02:31:01.633Z,82.07
2022-08-20T02:32:32.250Z,82.27
2022-08-20T02:33:29.427Z,82.36
2022-08-20T02:34:31.724Z,82.27
2022-08-20T02:35:35.160Z,82.75
2022-08-20T02:36:38.368Z,82.70
2022-08-20T02:37:43.549Z,82.58
2022-08-20T02:38:46.909Z,82.92
2022-08-20T02:39:50.158Z,82.92
2022-08-20T02:40:52.903Z,83.08
2022-08-20T02:41:56.016Z,82.98
2022-08-20T02:43:00.839Z,83.12
2022-08-20T02:44:04.948Z,83.11
2022-08-20T02:45:08.194Z,83.49
2022-08-20T02:46:18.978Z,83.54
2022-08-20T02:47:21.116Z,83.46
2022-08-20T02:48:24.514Z,83.77
2022-08-20T02:49:26.662Z,83.91
2022-08-20T02:50:30.334Z,83.68
2022-08-20T02:51:33.346Z,84.20
2022-08-20T02:52:36.440Z,83.81
2022-08-20T02:53:41.814Z,84.12
2022-08-20T02:54:44.936Z,84.08
2022-08-20T02:55:48.157Z,84.24
2022-08-20T02:56:52.078Z,84.29
2022-08-20T02:57:54.788Z,84.56
2022-08-20T02:59:03.662Z,84.58
2022-08-20T03:00:08.412Z,84.79
2022-08-20T03:01:14.003Z,84.64
2022-08-20T03:02:16.293Z,84.94
2022-08-20T03:03:22.488Z,84.99
2022-08-20T03:04:24.679Z,85.13
2022-08-20T03:05:29.535Z,85.09
2022-08-20T03:06:32.016Z,85.36
2022-08-20T03:07:43.737Z,85.52
2022-08-20T03:08:45.850Z,85.62
2022-08-20T03:09:49.022Z,85.75
2022-08-20T03:10:52.176Z,85.96
2022-08-20T03:11:55.309Z,85.94
2022-08-20T03:12:57.429Z,86.05
2022-08-20T03:14:00.543Z,86.12
2022-08-20T03:15:05.268Z,85.95
2022-08-20T03:16:09.305Z,86.37
2022-08-20T03:17:11.579Z,86.55
2022-08-20T03:18:16.351Z,86.85
2022-08-20T03:19:18.510Z,86.80
2022-08-20T03:20:23.935Z,86.93
2022-08-20T03:21:26.759Z,86.90
2022-08-20T03:22:29.965Z,87.09
2022-08-20T03:23:34.074Z,87.16
2022-08-20T03:24:37.733Z,87.11
2022-08-20T03:25:40.919Z,87.50
2022-08-20T03:26:43.392Z,87.28
2022-08-20T03:27:47.202Z,87.54
2022-08-20T03:28:56.202Z,87.56
2022-08-20T03:29:59.402Z,87.57
2022-08-20T03:31:04.086Z,87.97
2022-08-20T03:32:07.936Z,87.95
2022-08-20T03:33:10.357Z,87.96
2022-08-20T03:34:13.580Z,88.11
2022-08-20T03:35:18.590Z,88.20
2022-08-20T03:36:24.214Z,88.33
2022-08-20T03:37:31.454Z,88.32
2022-08-20T03:38:35.126Z,88.43
2022-08-20T03:39:37.312Z,88.30
2022-08-20T03:40:40.941Z,88.57
2022-08-20T03:41:43.050Z,88.33
2022-08-20T03:42:46.371Z,88.43
2022-08-20T03:43:48.630Z,88.59
2022-08-20T03:44:58.637Z,88.67
2022-08-20T03:46:04.732Z,88.46
2022-08-20T03:47:09.430Z,88.84
2022-08-20T03:48:14.965Z,88.74
2022-08-20T03:49:17.214Z,89.09
2022-08-20T03:50:23.624Z,88.70
2022-08-20T03:51:26.079Z,88.88
2022-08-20T03:52:29.692Z,88.90
2022-08-20T03:53:31.900Z,88.96
2022-08-20T03:54:35.469Z,89.21
2022-08-20T03:55:37.586Z,88.96
2022-08-20T03:56:40.714Z,89.28
2022-08-20T03:57:45.093Z,89.19
2022-08-20T03:58:48.129Z,89.35
2022-08-20T03:59:54.847Z,89.27
2022-08-20T04:01:01.727Z,89.28
2022-08-20T04:02:06.394Z,89.61
2022-08-20T04:03:10.668Z,89.57
2022-08-20T04:04:12.953Z,89.57
2022-08-20T04:05:16.108Z,89.79
2022-08-20T04:06:19.399Z,89.81
2022-08-20T04:07:25.889Z,89.96
2022-08-20T04:08:30.480Z,90.39
2022-08-20T04:09:33.065Z,90.15
2022-08-20T04:10:36.644Z,90.23
2022-08-20T04:11:39.321Z,90.20
2022-08-20T04:12:53.007Z,90.55
2022-08-20T04:13:55.453Z,90.44
2022-08-20T04:14:58.610Z,90.63
2022-08-20T04:16:02.122Z,90.83
2022-08-20T04:17:09.988Z,91.04
2022-08-20T04:18:13.357Z,90.94
2022-08-20T04:19:16.509Z,91.04
2022-08-20T04:20:22.818Z,91.17
2022-08-20T04:21:26.131Z,91.17
2022-08-20T04:22:33.161Z,91.28
2022-08-20T04:23:36.459Z,91.38
2022-08-20T04:24:38.589Z,91.56
2022-08-20T04:25:43.353Z,91.67
2022-08-20T04:26:45.579Z,91.90
2022-08-20T04:27:50.537Z,91.91
2022-08-20T04:28:53.070Z,91.91
2022-08-20T04:29:56.215Z,91.93
2022-08-20T04:31:01.421Z,92.28
2022-08-20T04:32:05.929Z,92.26
2022-08-20T04:33:11.197Z,92.56
2022-08-20T04:34:13.469Z,92.33
2022-08-20T04:35:18.406Z,92.63
2022-08-20T04:36:20.494Z,92.63
2022-08-20T04:37:24.508Z,92.70
2022-08-20T04:38:27.865Z,92.81
2022-08-20T04:40:05.628Z,92.83
2022-08-20T04:41:08.958Z,93.07
2022-08-20T04:42:25.487Z,93.27
2022-08-20T04:43:30.574Z,93.13
2022-08-20T04:44:32.981Z,93.29
2022-08-20T04:45:36.118Z,93.42
2022-08-20T04:46:39.385Z,93.48
2022-08-20T04:47:42.658Z,93.57
2022-08-20T04:48:50.460Z,93.55
2022-08-20T04:49:53.795Z,93.64
2022-08-20T04:51:02.605Z,93.81
2022-08-20T04:52:06.271Z,93.92
2022-08-20T04:53:13.016Z,93.91
2022-08-20T04:54:15.137Z,94.11
2022-08-20T04:55:19.194Z,94.08
2022-08-20T04:56:23.879Z,94.15
2022-08-20T04:57:27.439Z,94.22
2022-08-20T04:58:34.834Z,94.28
2022-08-20T04:59:36.918Z,94.18
2022-08-20T05:00:40.715Z,94.25
2022-08-20T05:01:42.929Z,94.48
2022-08-20T05:02:46.243Z,94.38
2022-08-20T05:03:51.346Z,94.20
2022-08-20T05:04:53.443Z,94.28
2022-08-20T05:05:57.624Z,94.41
2022-08-20T05:06:59.763Z,94.25
2022-08-20T05:08:03.210Z,94.34
2022-08-20T05:09:06.351Z,94.60
2022-08-20T05:10:11.207Z,94.46
2022-08-20T05:11:36.143Z,94.40
2022-08-20T05:12:38.074Z,94.41
2022-08-20T05:13:40.840Z,94.28
2022-08-20T05:14:43.949Z,94.22
2022-08-20T05:15:46.107Z,94.13
2022-08-20T05:16:50.682Z,94.15
2022-08-20T05:17:56.642Z,94.18
2022-08-20T05:19:01.318Z,94.16
2022-08-20T05:20:04.289Z,94.10
2022-08-20T05:21:07.695Z,94.05
2022-08-20T05:22:09.796Z,93.88
2022-08-20T05:23:14.552Z,93.99
2022-08-20T05:24:16.889Z,93.72
2022-08-20T05:25:21.789Z,93.60
2022-08-20T05:26:26.374Z,93.67
2022-08-20T05:27:30.126Z,93.55
2022-08-20T05:28:32.930Z,93.47
2022-08-20T05:29:40.079Z,93.14
2022-08-20T05:30:45.088Z,93.22
2022-08-20T05:31:50.891Z,93.11
2022-08-20T05:32:53.097Z,93.14
2022-08-20T05:33:57.790Z,92.97
2022-08-20T05:35:01.532Z,92.94
2022-08-20T05:36:07.396Z,92.66
2022-08-20T05:37:10.392Z,92.59
2022-08-20T05:38:18.147Z,92.58
2022-08-20T05:39:21.989Z,92.52
2022-08-20T05:40:25.612Z,92.33
2022-08-20T05:41:30.407Z,92.60
2022-08-20T05:42:33.852Z,92.32
2022-08-20T05:43:37.032Z,92.50
2022-08-20T05:44:39.275Z,92.31
2022-08-20T05:45:44.534Z,92.17
2022-08-20T05:46:48.991Z,92.40
2022-08-20T05:47:53.406Z,92.23
2022-08-20T05:49:00.324Z,92.33
2022-08-20T05:50:05.542Z,92.17
2022-08-20T05:51:12.098Z,92.26
2022-08-20T05:52:18.430Z,92.18
2022-08-20T05:53:23.116Z,92.09
2022-08-20T05:54:25.807Z,92.14
2022-08-20T05:55:29.991Z,92.19
2022-08-20T05:56:32.535Z,92.16
2022-08-20T05:57:35.957Z,91.74
2022-08-20T05:58:38.233Z,92.04
2022-08-20T05:59:41.408Z,91.92
2022-08-20T06:00:43.512Z,92.20
2022-08-20T06:01:46.706Z,92.14
2022-08-20T06:03:07.480Z,92.22
2022-08-20T06:04:25.370Z,92.01
2022-08-20T06:05:28.957Z,91.89
2022-08-20T06:06:44.563Z,92.17
2022-08-20T06:07:50.687Z,91.89
2022-08-20T06:08:57.845Z,92.01
2022-08-20T06:10:01.419Z,91.89
2022-08-20T06:11:05.428Z,91.90
2022-08-20T06:12:08.997Z,91.88
2022-08-20T06:13:14.045Z,91.78
2022-08-20T06:14:17.686Z,91.82
2022-08-20T06:15:21.052Z,92.12
2022-08-20T06:16:29.054Z,92.13
2022-08-20T06:17:39.425Z,92.20
2022-08-20T06:18:42.843Z,92.17
2022-08-20T06:19:47.030Z,92.44
2022-08-20T06:20:51.692Z,92.54
2022-08-20T06:21:54.152Z,92.79
2022-08-20T06:22:57.596Z,92.66
2022-08-20T06:24:01.635Z,92.94
2022-08-20T06:25:07.395Z,92.96
2022-08-20T06:26:09.600Z,93.16
2022-08-20T06:27:15.698Z,93.18
2022-08-20T06:28:19.474Z,93.39
2022-08-20T06:29:21.588Z,93.40
2022-08-20T06:30:25.470Z,93.50
2022-08-20T06:31:27.973Z,93.79
2022-08-20T06:32:32.710Z,93.26
2022-08-20T06:33:35.127Z,93.73
2022-08-20T06:34:38.371Z,93.77
2022-08-20T06:35:55.918Z,93.76
2022-08-20T06:36:58.939Z,93.65
2022-08-20T06:38:02.119Z,93.75
2022-08-20T06:39:04.329Z,93.72
2022-08-20T06:40:11.123Z,93.35
2022-08-20T06:41:14.180Z,93.34
2022-08-20T06:42:21.021Z,93.45
2022-08-20T06:43:24.380Z,93.23
2022-08-20T06:44:28.520Z,93.16
2022-08-20T06:45:33.914Z,93.20
2022-08-20T06:46:37.450Z,93.12
2022-08-20T06:47:42.209Z,93.06
2022-08-20T06:48:44.423Z,92.81
2022-08-20T06:49:48.733Z,92.66
2022-08-20T06:50:50.935Z,92.84
2022-08-20T06:51:55.481Z,92.70
2022-08-20T06:52:59.757Z,92.45
2022-08-20T06:54:01.958Z,92.47
2022-08-20T06:55:05.879Z,92.18
2022-08-20T06:56:09.083Z,92.47
2022-08-20T06:57:11.284Z,92.49
2022-08-20T06:58:22.243Z,92.56
2022-08-20T06:59:37.127Z,92.06
2022-08-20T07:00:43.703Z,92.08
2022-08-20T07:01:46.234Z,92.09
2022-08-20T07:02:49.484Z,91.86
2022-08-20T07:03:55.697Z,91.79
2022-08-20T07:04:59.628Z,91.31
2022-08-20T07:06:01.891Z,91.36
2022-08-20T07:07:06.714Z,91.09
2022-08-20T07:08:09.694Z,91.04
2022-08-20T07:09:12.841Z,91.23
2022-08-20T07:10:15.870Z,90.85
2022-08-20T07:11:24.932Z,90.43
2022-08-20T07:12:29.863Z,90.39
2022-08-20T07:13:33.128Z,90.22
2022-08-20T07:14:35.911Z,89.95
2022-08-20T07:15:39.855Z,89.50
2022-08-20T07:16:42.143Z,89.39
2022-08-20T07:17:50.386Z,88.77
2022-08-20T07:18:52.585Z,88.65
2022-08-20T07:19:55.806Z,88.62
2022-08-20T07:20:58.528Z,88.50
2022-08-20T07:22:01.695Z,88.32
2022-08-20T07:23:12.016Z,88.14
2022-08-20T07:24:15.225Z,88.19
2022-08-20T07:25:19.757Z,87.90
2022-08-20T07:26:23.644Z,87.38
2022-08-20T07:27:25.890Z,86.84
2022-08-20T07:28:29.716Z,87.03
2022-08-20T07:29:46.812Z,86.51
2022-08-20T07:31:13.844Z,86.45
2022-08-20T07:32:36.842Z,86.19
2022-08-20T07:33:41.337Z,86.06
2022-08-20T07:34:43.588Z,86.06
2022-08-20T07:35:49.023Z,85.44
2022-08-20T07:36:52.195Z,84.93
2022-08-20T07:37:54.926Z,85.15
2022-08-20T07:38:59.580Z,85.12
2022-08-20T07:40:12.134Z,85.50
2022-08-20T07:41:15.894Z,85.10
2022-08-20T07:42:18.052Z,85.00
2022-08-20T07:43:23.213Z,84.69
2022-08-20T07:44:28.487Z,84.13
2022-08-20T07:45:34.264Z,84.24
2022-08-20T07:46:37.386Z,84.47
2022-08-20T07:47:41.625Z,84.31
2022-08-20T07:48:49.606Z,84.41
2022-08-20T07:49:51.781Z,84.01
2022-08-20T07:50:55.984Z,83.70
2022-08-20T07:51:58.419Z,83.59
2022-08-20T07:53:02.002Z,83.27
2022-08-20T07:54:06.851Z,82.84
2022-08-20T07:55:11.378Z,82.83
2022-08-20T07:56:16.861Z,82.45
2022-08-20T07:57:19.103Z,82.29
2022-08-20T07:58:23.961Z,81.93
2022-08-20T07:59:32.634Z,81.95
2022-08-20T08:00:35.414Z,81.79
2022-08-20T08:01:38.663Z,81.45
2022-08-20T08:02:41.000Z,80.75
2022-08-20T08:03:50.098Z,78.88
2022-08-20T08:04:52.889Z,79.82
2022-08-20T08:05:57.141Z,79.55
2022-08-20T08:07:00.680Z,79.13
2022-08-20T08:08:08.763Z,78.80
2022-08-20T08:09:16.229Z,78.38
2022-08-20T08:10:25.957Z,78.89
2022-08-20T08:11:29.868Z,78.68
2022-08-20T08:12:39.756Z,78.32
2022-08-20T08:13:43.556Z,77.94
2022-08-20T08:14:50.507Z,77.48
2022-08-20T08:15:57.488Z,76.87
2022-08-20T08:17:04.961Z,76.72
2022-08-20T08:18:12.168Z,76.35
2022-08-20T08:19:18.494Z,76.36
2022-08-20T08:20:21.987Z,75.76
2022-08-20T08:21:25.741Z,75.92
2022-08-20T08:22:31.876Z,75.69
2022-08-20T08:23:37.466Z,75.32
2022-08-20T08:24:42.184Z,75.29
2022-08-20T08:26:06.706Z,75.22
2022-08-20T08:27:18.998Z,75.17
2022-08-20T08:28:22.430Z,75.49
2022-08-20T08:29:24.683Z,75.10
2022-08-20T08:30:31.397Z,74.70
2022-08-20T08:31:33.709Z,74.72
2022-08-20T08:32:37.249Z,74.38
2022-08-20T08:33:40.865Z,74.35
2022-08-20T08:34:48.151Z,73.79
2022-08-20T08:35:50.321Z,73.94
2022-08-20T08:36:53.893Z,74.29
2022-08-20T08:38:00.921Z,74.28
2022-08-20T08:39:04.111Z,73.91
2022-08-20T08:40:09.490Z,74.12
2022-08-20T08:41:17.743Z,73.73
2022-08-20T08:42:28.912Z,73.50
2022-08-20T08:43:32.823Z,73.28
2022-08-20T08:44:42.657Z,72.34
2022-08-20T08:45:48.282Z,72.20
2022-08-20T08:46:56.225Z,72.06
2022-08-20T08:47:59.263Z,71.78
2022-08-20T08:49:02.878Z,72.10
2022-08-20T08:50:06.862Z,72.05
2022-08-20T08:51:12.975Z,72.04
2022-08-20T08:52:22.355Z,71.81
2022-08-20T08:53:29.766Z,71.82
2022-08-20T08:54:35.187Z,71.88
2022-08-20T08:55:38.676Z,72.04
2022-08-20T08:56:43.296Z,71.82
2022-08-20T08:57:55.686Z,71.40
2022-08-20T08:59:01.825Z,71.31
2022-08-20T09:00:08.926Z,68.96
2022-08-20T09:01:55.424Z,69.09
2022-08-20T09:02:38.997Z,68.44
2022-08-20T09:03:44.497Z,68.20
2022-08-20T09:04:47.265Z,68.55
2022-08-20T09:05:53.362Z,68.51
2022-08-20T09:06:56.648Z,68.26
2022-08-20T09:08:01.453Z,68.25
2022-08-20T09:09:07.136Z,68.61
2022-08-20T09:10:09.588Z,68.73
2022-08-20T09:11:14.161Z,68.78
2022-08-20T09:12:19.508Z,68.80
2022-08-20T09:13:22.719Z,68.97
2022-08-20T09:14:25.064Z,69.22
2022-08-20T09:15:28.619Z,68.97
2022-08-20T09:16:52.002Z,68.35
2022-08-20T09:17:55.054Z,68.72
2022-08-20T09:19:00.194Z,68.59
2022-08-20T09:20:04.107Z,65.46
2022-08-20T09:21:07.145Z,65.47
2022-08-20T09:22:11.224Z,64.64
2022-08-20T09:23:13.441Z,63.78
2022-08-20T09:24:16.751Z,63.57
2022-08-20T09:25:19.768Z,63.63
2022-08-20T09:26:24.464Z,63.22
2022-08-20T09:27:32.117Z,63.48
2022-08-20T09:28:37.264Z,63.45
2022-08-20T09:29:39.966Z,63.16
2022-08-20T09:30:43.185Z,63.16
2022-08-20T09:31:47.775Z,63.24
2022-08-20T09:32:50.892Z,62.78
2022-08-20T09:33:54.732Z,62.72
2022-08-20T09:34:57.070Z,62.75
2022-08-20T09:36:00.240Z,63.15
2022-08-20T09:37:03.509Z,63.19
2022-08-20T09:38:06.167Z,63.27
2022-08-20T09:39:10.057Z,63.52
2022-08-20T09:40:12.381Z,62.72
2022-08-20T09:41:15.625Z,62.83
2022-08-20T09:42:21.988Z,62.16
2022-08-20T09:43:25.193Z,61.98
2022-08-20T09:44:27.419Z,61.47
2022-08-20T09:45:31.835Z,61.08
2022-08-20T09:46:34.077Z,61.42
2022-08-20T09:47:37.750Z,61.97
2022-08-20T09:48:43.509Z,61.58
2022-08-20T09:49:46.021Z,61.41
2022-08-20T09:50:50.908Z,61.34
2022-08-20T09:51:53.208Z,61.45
2022-08-20T09:52:58.257Z,61.67
2022-08-20T09:54:02.345Z,61.88
2022-08-20T09:55:16.056Z,61.96
2022-08-20T09:56:19.836Z,61.79
2022-08-20T09:57:23.919Z,61.62
2022-08-20T09:58:35.022Z,61.99
2022-08-20T09:59:37.698Z,61.53
2022-08-20T10:00:41.662Z,61.44
2022-08-20T10:01:43.966Z,61.43
2022-08-20T10:02:47.437Z,61.48
2022-08-20T10:03:50.675Z,61.53
2022-08-20T10:04:54.447Z,62.07
2022-08-20T10:06:01.010Z,62.07
2022-08-20T10:07:07.704Z,62.89
2022-08-20T10:08:12.804Z,62.67
2022-08-20T10:09:15.512Z,62.75
2022-08-20T10:10:18.777Z,62.74
2022-08-20T10:11:21.132Z,63.04
2022-08-20T10:12:25.911Z,62.68
2022-08-20T10:13:28.081Z,62.31
2022-08-20T10:14:31.464Z,62.59
2022-08-20T10:15:33.605Z,62.73
2022-08-20T10:16:36.882Z,63.02
2022-08-20T10:17:41.043Z,62.98
2022-08-20T10:18:43.384Z,62.49
2022-08-20T10:19:46.556Z,62.18
2022-08-20T10:20:48.752Z,62.55
2022-08-20T10:21:52.506Z,62.39
2022-08-20T10:22:55.650Z,62.75
2022-08-20T10:23:58.390Z,63.08
2022-08-20T10:25:01.704Z,63.79
2022-08-20T10:26:04.433Z,63.53
2022-08-20T10:27:08.073Z,64.08
2022-08-20T10:28:12.568Z,64.01
2022-08-20T10:29:15.290Z,63.99
2022-08-20T10:30:18.777Z,64.01
2022-08-20T10:31:20.881Z,64.35
2022-08-20T10:32:24.178Z,64.27
2022-08-20T10:33:26.422Z,64.37
2022-08-20T10:34:29.652Z,64.40
2022-08-20T10:35:31.857Z,64.04
2022-08-20T10:36:35.118Z,63.41
2022-08-20T10:37:38.339Z,63.67
2022-08-20T10:38:40.506Z,63.99
2022-08-20T10:39:43.996Z,63.84
2022-08-20T10:40:52.190Z,63.99
2022-08-20T10:41:55.840Z,63.93
2022-08-20T10:42:59.389Z,64.25
2022-08-20T10:44:04.598Z,63.91
2022-08-20T10:45:07.881Z,63.87
2022-08-20T10:46:11.126Z,63.88
2022-08-20T10:47:18.663Z,63.63
2022-08-20T10:48:22.702Z,63.99
2022-08-20T10:49:24.975Z,63.44
2022-08-20T10:50:30.345Z,63.83
2022-08-20T10:51:34.245Z,63.84
2022-08-20T10:52:37.250Z,63.61
2022-08-20T10:53:40.436Z,63.11
2022-08-20T10:54:42.740Z,62.49
2022-08-20T10:55:46.329Z,61.69
2022-08-20T10:56:48.513Z,61.68
2022-08-20T10:57:51.753Z,61.46
2022-08-20T10:58:53.962Z,61.64
2022-08-20T11:00:00.125Z,61.12
2022-08-20T11:01:02.435Z,61.33
2022-08-20T11:02:05.779Z,61.30
2022-08-20T11:03:08.031Z,61.47
2022-08-20T11:04:11.218Z,60.95
2022-08-20T11:05:13.762Z,61.02
2022-08-20T11:06:17.072Z,60.78
2022-08-20T11:07:50.431Z,60.62
2022-08-20T11:08:47.471Z,60.34
2022-08-20T11:09:50.513Z,60.56
2022-08-20T11:10:53.927Z,60.37
2022-08-20T11:11:56.142Z,60.23
2022-08-20T11:12:59.376Z,60.13
2022-08-20T11:14:01.588Z,60.20
2022-08-20T11:15:09.298Z,59.96
2022-08-20T11:16:12.674Z,59.28
2022-08-20T11:17:20.566Z,58.75
2022-08-20T11:18:23.725Z,58.70
2022-08-20T11:19:25.949Z,58.43
2022-08-20T11:20:31.494Z,57.76
2022-08-20T11:21:34.613Z,57.79
2022-08-20T11:22:37.363Z,57.49
2022-08-20T11:23:40.565Z,57.01
2022-08-20T11:24:42.891Z,57.20
2022-08-20T11:25:50.699Z,57.01
2022-08-20T11:26:53.480Z,56.59
2022-08-20T11:27:57.887Z,56.66
2022-08-20T11:29:00.102Z,56.20
2022-08-20T11:30:03.983Z,55.89
2022-08-20T11:31:08.598Z,55.67
2022-08-20T11:32:10.846Z,55.22
2022-08-20T11:33:14.050Z,55.37
2022-08-20T11:34:16.417Z,55.74
2022-08-20T11:36:46.202Z,55.86
2022-08-20T11:37:48.479Z,55.65
2022-08-20T11:38:51.673Z,55.60
2022-08-20T11:39:54.363Z,54.93
2022-08-20T11:40:57.554Z,54.60
2022-08-20T11:41:59.705Z,54.95
2022-08-20T11:43:18.605Z,54.29
2022-08-20T11:44:21.891Z,54.40
2022-08-20T11:45:24.145Z,53.67
2022-08-20T11:46:28.862Z,53.34
2022-08-20T11:47:33.742Z,53.48
2022-08-20T11:48:36.933Z,52.64
2022-08-20T11:49:39.128Z,52.15
2022-08-20T11:50:42.396Z,52.75
2022-08-20T11:51:50.053Z,51.94
2022-08-20T11:52:53.532Z,52.37
2022-08-20T11:53:55.751Z,52.93
2022-08-20T11:54:59.545Z,52.69
2022-08-20T11:56:02.886Z,51.94
2022-08-20T11:57:06.099Z,50.80
2022-08-20T11:58:10.627Z,50.20
2022-08-20T11:59:14.316Z,49.19
2022-08-20T12:00:21.704Z,49.62
2022-08-20T12:01:37.273Z,49.75
2022-08-20T12:02:40.738Z,49.27
2022-08-20T12:03:44.189Z,49.86
2022-08-20T12:04:47.369Z,49.75
2022-08-20T12:05:49.999Z,49.70
2022-08-20T12:06:53.142Z,49.52
2022-08-20T12:07:55.278Z,50.43
2022-08-20T12:08:58.519Z,50.30
2022-08-20T12:10:00.659Z,49.78
2022-08-20T12:11:04.628Z,49.30
2022-08-20T12:12:07.573Z,49.36
2022-08-20T12:13:10.840Z,48.81
2022-08-20T12:14:13.099Z,48.09
2022-08-20T12:15:16.251Z,47.80
2022-08-20T12:16:19.319Z,46.89
2022-08-20T12:17:26.819Z,46.41
2022-08-20T12:18:29.239Z,46.69
2022-08-20T12:19:32.420Z,47.16
2022-08-20T12:20:36.006Z,46.48
2022-08-20T12:21:38.453Z,45.74
2022-08-20T12:22:42.237Z,46.05
2022-08-20T12:23:45.163Z,46.02
2022-08-20T12:24:48.708Z,45.97
2022-08-20T12:25:51.906Z,45.83
2022-08-20T12:26:54.107Z,46.07
2022-08-20T12:27:57.543Z,45.97
2022-08-20T12:29:00.711Z,46.40
2022-08-20T12:30:06.821Z,46.64
2022-08-20T12:31:10.045Z,45.85
2022-08-20T12:32:12.856Z,45.42
2022-08-20T12:33:17.546Z,45.70
2022-08-20T12:34:19.706Z,45.78
2022-08-20T12:35:23.005Z,45.31
2022-08-20T12:36:25.119Z,45.74
2022-08-20T12:37:30.805Z,45.13
2022-08-20T12:38:34.187Z,45.75
2022-08-20T12:39:39.248Z,45.31
2022-08-20T12:40:42.467Z,45.56
2022-08-20T12:41:45.196Z,45.31
2022-08-20T12:42:48.903Z,45.64
2022-08-20T12:43:51.075Z,45.83
2022-08-20T12:44:54.258Z,45.60
2022-08-20T12:45:57.452Z,46.08
2022-08-20T12:47:07.746Z,46.23
2022-08-20T12:48:13.447Z,46.29
2022-08-20T12:49:17.011Z,46.04
2022-08-20T12:50:23.017Z,45.63
2022-08-20T12:51:26.265Z,45.95
2022-08-20T12:52:30.108Z,45.18
2022-08-20T12:53:33.334Z,45.64
2022-08-20T12:54:36.680Z,45.70
2022-08-20T12:55:39.829Z,45.89
2022-08-20T12:56:42.004Z,46.16
2022-08-20T12:57:47.657Z,46.35
2022-08-20T12:58:49.829Z,46.24
2022-08-20T12:59:52.989Z,46.23
2022-08-20T13:00:56.133Z,46.81
2022-08-20T13:01:58.397Z,46.54
2022-08-20T13:03:17.124Z,46.57
2022-08-20T13:04:21.100Z,46.58
2022-08-20T13:05:24.998Z,47.25
2022-08-20T13:06:28.480Z,46.86
2022-08-20T13:07:31.296Z,46.00
2022-08-20T13:08:34.535Z,46.02
2022-08-20T13:09:36.729Z,45.18
2022-08-20T13:10:46.337Z,45.46
2022-08-20T13:11:48.508Z,44.98
2022-08-20T13:12:51.656Z,45.57
2022-08-20T13:13:53.870Z,45.09
2022-08-20T13:14:57.023Z,45.57
2022-08-20T13:15:59.170Z,45.85
2022-08-20T13:17:03.008Z,45.20
2022-08-20T13:18:06.469Z,45.61
2022-08-20T13:19:09.649Z,45.46
2022-08-20T13:20:17.327Z,44.75
2022-08-20T13:21:23.892Z,45.36
2022-08-20T13:22:26.316Z,45.18
2022-08-20T13:23:29.436Z,45.47
2022-08-20T13:24:31.876Z,45.05
2022-08-20T13:25:35.277Z,43.78
2022-08-20T13:26:37.459Z,44.37
2022-08-20T13:27:42.603Z,44.30
2022-08-20T13:28:44.822Z,43.62
2022-08-20T13:29:48.488Z,43.33
2022-08-20T13:30:51.868Z,42.83
2022-08-20T13:31:54.038Z,42.89
2022-08-20T13:32:57.328Z,42.79
2022-08-20T13:33:59.619Z,42.23
2022-08-20T13:35:02.970Z,41.44
2022-08-20T13:36:06.961Z,41.69
2022-08-20T13:37:14.052Z,40.44
2022-08-20T13:38:17.282Z,40.91
2022-08-20T13:39:19.446Z,40.39
2022-08-20T13:40:22.852Z,40.48
2022-08-20T13:41:25.078Z,40.54
2022-08-20T13:42:29.248Z,40.33
2022-08-20T13:43:31.513Z,39.85
2022-08-20T13:44:34.821Z,39.55
2022-08-20T13:45:38.870Z,39.86
2022-08-20T13:46:41.056Z,39.39
2022-08-20T13:47:44.774Z,39.61
2022-08-20T13:48:46.955Z,38.98
2022-08-20T13:49:55.621Z,38.89
2022-08-20T13:50:58.784Z,38.94
2022-08-20T13:52:02.590Z,39.25
2022-08-20T13:53:07.173Z,39.80
2022-08-20T13:54:10.780Z,39.45
2022-08-20T13:55:16.339Z,40.01
2022-08-20T13:56:18.516Z,39.87